CPX101 Details

Departure: Los Angeles International Airport (KLAX)
Arrival: Miami International Airport (KMIA)
Route: DOTSS2 CNERY BLH J65 KOFFA J169 TFD J50 ELP J2 JCT J86 LEV Q102 BAGGS SSCOT5


Current Weather Information
KLAX 190753Z 00000KT 7SM FEW007 FEW018 14/12 A2997 RMK AO2 SLP148 T01390122 402280128
KMIA 190753Z 36007KT 320V020 6SM BR BKN012 OVC025 21/19 A2999 RMK AO2 SLP155 T02110194